Los Guilicos, CA

9:40 AM PST on December 09, 2016 (GMT -0800)
Kenwood | | Change Station

Elev 415 ft 38.42 °N, 122.56 °W | Updated 13 minutes ago

Fog
Fog
53.5 °F
Feels Like 53.5 °F
N
0.0
Wind Variable Wind from NNE

Today
High -- | Low -- °F
--% Chance of Precip.
Yesterday
High -- | Low -- °F
Precip. -- in
Pressure 30.27 in
Visibility 1.0 miles
Clouds Overcast 300 ft
Dew Point 54 °F
Humidity 100%
Rainfall 0.13 in
Snow Depth Not available.
7:16 AM 4:49 PM
Waxing Gibbous, 75% visible
METAR KO69 091735Z AUTO 00000KT 1SM OVC003 13/13 A3027 RMK AO1 P0002
Pressure 30.27 in
Visibility 1.0 miles
Clouds Overcast 300 ft
Dew Point 54 °F
Humidity 100%
Rainfall 0.13 in
Snow Depth Not available.
7:16 AM 4:49 PM
Waxing Gibbous, 75% visible
METAR KO69 091735Z AUTO 00000KT 1SM OVC003 13/13 A3027 RMK AO1 P0002

10-Day Weather Forecast

Almanac

Astronomy

Dec. 09, 2016 Rise Set
Actual Time
Civil Twilight
Nautical Twilight
Astronomical Twilight
Moon
Length of Visible Light
Length of Day
Tomorrow will be .
, % of the Moon is Illuminated

Today's Extremes

State Highs State Lows

Community

WunderPhotos

Upload Photos

1,956,462 photos uploaded!

WunderBlog® & News

Nearby

Air Quality

  Air Quality AQ Index Pollutant
Not available.

Snow Depth

Station Depth Elevation

Earthquake Activity

City Distance Mag. Time & Date
Minimum magnitude displayed is 2.5.

Coastal Water Temperatures

Place Temperature

Stations

Nearby Weather Stations

Station Location Temp. Windchill Dew Point Humidity Wind Precip. Elev Updated Type
                   

Watches & Warnings

There are currently no watches in effect.